sensor_id;sensor_type;location;lat;lon;timestamp;pressure;altitude;pressure_sealevel;temperature;humidity
79589;BME280;69067;51.930;4.492;2023-08-01T00:02:10;99861.38;;;25.93;48.44
79589;BME280;69067;51.930;4.492;2023-08-01T00:04:36;99851.28;;;25.93;47.61
79589;BME280;69067;51.930;4.492;2023-08-01T00:07:02;99858.97;;;25.96;47.71
79589;BME280;69067;51.930;4.492;2023-08-01T00:09:29;99855.91;;;25.93;47.80
79589;BME280;69067;51.930;4.492;2023-08-01T00:11:55;99850.47;;;25.93;48.13
79589;BME280;69067;51.930;4.492;2023-08-01T00:14:21;99847.75;;;25.93;48.13
79589;BME280;69067;51.930;4.492;2023-08-01T00:16:50;99841.94;;;25.89;47.37
79589;BME280;69067;51.930;4.492;2023-08-01T00:19:16;99845.91;;;25.98;47.10
79589;BME280;69067;51.930;4.492;2023-08-01T00:21:42;99832.19;;;25.93;47.48
79589;BME280;69067;51.930;4.492;2023-08-01T00:24:08;99832.28;;;25.98;47.42
79589;BME280;69067;51.930;4.492;2023-08-01T00:26:34;99824.56;;;25.95;47.38
79589;BME280;69067;51.930;4.492;2023-08-01T00:29:00;99830.84;;;25.96;47.88
79589;BME280;69067;51.930;4.492;2023-08-01T00:31:26;99828.97;;;25.96;48.00
79589;BME280;69067;51.930;4.492;2023-08-01T00:33:52;99820.78;;;25.96;47.71
79589;BME280;69067;51.930;4.492;2023-08-01T00:36:17;99816.22;;;26.02;47.31
79589;BME280;69067;51.930;4.492;2023-08-01T00:38:43;99799.47;;;25.93;48.22
79589;BME280;69067;51.930;4.492;2023-08-01T00:41:09;99810.44;;;25.98;47.56
79589;BME280;69067;51.930;4.492;2023-08-01T00:43:35;99814.25;;;25.97;47.69
79589;BME280;69067;51.930;4.492;2023-08-01T00:46:04;99809.63;;;25.98;47.41
79589;BME280;69067;51.930;4.492;2023-08-01T00:48:32;99812.59;;;25.96;47.38
79589;BME280;69067;51.930;4.492;2023-08-01T00:51:01;99805.56;;;26.00;47.95
79589;BME280;69067;51.930;4.492;2023-08-01T00:53:30;99804.41;;;25.96;47.76
79589;BME280;69067;51.930;4.492;2023-08-01T00:55:58;99804.41;;;25.96;48.00
79589;BME280;69067;51.930;4.492;2023-08-01T00:58:24;99807.72;;;25.98;47.67
79589;BME280;69067;51.930;4.492;2023-08-01T01:00:51;99805.25;;;25.97;47.82
79589;BME280;69067;51.930;4.492;2023-08-01T01:03:18;99802.28;;;25.98;47.50
79589;BME280;69067;51.930;4.492;2023-08-01T01:06:14;99801.69;;;25.96;47.27
79589;BME280;69067;51.930;4.492;2023-08-01T01:08:49;99800.59;;;25.97;47.79
79589;BME280;69067;51.930;4.492;2023-08-01T01:11:15;99797.88;;;25.97;47.92
79589;BME280;69067;51.930;4.492;2023-08-01T01:13:40;99797.38;;;26.00;47.03
79589;BME280;69067;51.930;4.492;2023-08-01T01:16:06;99796.22;;;25.96;47.20
79589;BME280;69067;51.930;4.492;2023-08-01T01:18:32;99796.22;;;25.96;47.40
79589;BME280;69067;51.930;4.492;2023-08-01T01:20:58;99805.31;;;26.02;47.86
79589;BME280;69067;51.930;4.492;2023-08-01T01:23:26;99799.59;;;26.03;46.99
79589;BME280;69067;51.930;4.492;2023-08-01T01:25:54;99796.22;;;25.96;47.60
79589;BME280;69067;51.930;4.492;2023-08-01T01:28:23;99790.28;;;25.99;47.51
79589;BME280;69067;51.930;4.492;2023-08-01T01:30:52;99796.06;;;26.03;47.68
79589;BME280;69067;51.930;4.492;2023-08-01T01:33:18;99793.56;;;26.01;47.25
79589;BME280;69067;51.930;4.492;2023-08-01T01:35:44;99800.38;;;25.99;47.63
79589;BME280;69067;51.930;4.492;2023-08-01T01:38:11;99789.13;;;25.95;47.41
79589;BME280;69067;51.930;4.492;2023-08-01T01:40:37;99789.03;;;25.90;47.78
79589;BME280;69067;51.930;4.492;2023-08-01T01:43:03;99793.19;;;25.93;47.65
79589;BME280;69067;51.930;4.492;2023-08-01T01:45:28;99790.47;;;25.93;48.08
79589;BME280;69067;51.930;4.492;2023-08-01T01:47:54;99790.19;;;25.94;47.04
79589;BME280;69067;51.930;4.492;2023-08-01T01:50:20;99794.91;;;25.99;47.19
79589;BME280;69067;51.930;4.492;2023-08-01T01:52:46;99791.41;;;26.03;47.77
79589;BME280;69067;51.930;4.492;2023-08-01T01:55:12;99793.56;;;26.01;47.47
79589;BME280;69067;51.930;4.492;2023-08-01T01:57:38;99784.31;;;26.02;47.02
79589;BME280;69067;51.930;4.492;2023-08-01T02:00:04;99793.00;;;25.99;47.30
79589;BME280;69067;51.930;4.492;2023-08-01T02:02:31;99785.66;;;26.00;47.77
79589;BME280;69067;51.930;4.492;2023-08-01T02:04:57;99789.19;;;26.00;47.03
79589;BME280;69067;51.930;4.492;2023-08-01T02:07:23;99789.53;;;26.04;47.19
79589;BME280;69067;51.930;4.492;2023-08-01T02:09:48;99777.88;;;25.92;47.88
79589;BME280;69067;51.930;4.492;2023-08-01T02:12:14;99782.50;;;25.91;47.44
79589;BME280;69067;51.930;4.492;2023-08-01T02:14:41;99779.84;;;25.96;47.20
79589;BME280;69067;51.930;4.492;2023-08-01T02:17:07;99777.06;;;25.91;47.40
79589;BME280;69067;51.930;4.492;2023-08-01T02:19:33;99782.66;;;26.01;47.20
79589;BME280;69067;51.930;4.492;2023-08-01T02:21:59;99773.25;;;25.92;47.71
79589;BME280;69067;51.930;4.492;2023-08-01T02:24:25;99766.75;;;25.93;47.69
79589;BME280;69067;51.930;4.492;2023-08-01T02:26:51;99770.25;;;25.94;47.21
79589;BME280;69067;51.930;4.492;2023-08-01T02:29:17;99782.50;;;25.91;47.72
79589;BME280;69067;51.930;4.492;2023-08-01T02:31:42;99775.16;;;25.92;47.52
79589;BME280;69067;51.930;4.492;2023-08-01T02:34:08;99771.09;;;25.94;47.61
79589;BME280;69067;51.930;4.492;2023-08-01T02:36:34;99765.31;;;25.91;47.22
79589;BME280;69067;51.930;4.492;2023-08-01T02:38:59;99771.44;;;25.98;46.79
79589;BME280;69067;51.930;4.492;2023-08-01T02:41:25;99775.00;;;25.98;47.26
79589;BME280;69067;51.930;4.492;2023-08-01T02:43:51;99774.16;;;25.98;47.72
79589;BME280;69067;51.930;4.492;2023-08-01T02:46:17;99776.88;;;25.98;47.31
79589;BME280;69067;51.930;4.492;2023-08-01T02:48:42;99777.13;;;25.96;48.07
79589;BME280;69067;51.930;4.492;2023-08-01T02:51:08;99773.91;;;25.99;46.92
79589;BME280;69067;51.930;4.492;2023-08-01T02:53:35;99780.94;;;25.95;47.17
79589;BME280;69067;51.930;4.492;2023-08-01T02:56:02;99788.03;;;25.96;47.91
79589;BME280;69067;51.930;4.492;2023-08-01T02:58:28;99783.25;;;26.03;46.61
79589;BME280;69067;51.930;4.492;2023-08-01T03:00:54;99773.81;;;25.94;47.64
79589;BME280;69067;51.930;4.492;2023-08-01T03:03:20;99790.78;;;25.96;47.71
79589;BME280;69067;51.930;4.492;2023-08-01T03:05:46;99780.19;;;26.00;46.89
79589;BME280;69067;51.930;4.492;2023-08-01T03:08:13;99785.31;;;25.96;47.02
79589;BME280;69067;51.930;4.492;2023-08-01T03:10:39;99780.84;;;25.90;47.33
79589;BME280;69067;51.930;4.492;2023-08-01T03:13:04;99770.44;;;25.87;47.32
79589;BME280;69067;51.930;4.492;2023-08-01T03:15:30;99783.91;;;25.94;47.37
79589;BME280;69067;51.930;4.492;2023-08-01T03:17:57;99782.28;;;25.93;47.34
79589;BME280;69067;51.930;4.492;2023-08-01T03:20:23;99789.88;;;25.91;47.21
79589;BME280;69067;51.930;4.492;2023-08-01T03:22:48;99792.84;;;25.89;47.42
79589;BME280;69067;51.930;4.492;2023-08-01T03:25:14;99790.19;;;25.94;47.56
79589;BME280;69067;51.930;4.492;2023-08-01T03:27:40;99786.91;;;25.92;46.88
79589;BME280;69067;51.930;4.492;2023-08-01T03:30:06;99794.00;;;25.93;47.13
79589;BME280;69067;51.930;4.492;2023-08-01T03:32:35;99796.75;;;25.93;47.55
79589;BME280;69067;51.930;4.492;2023-08-01T03:35:04;99797.53;;;25.94;47.32
79589;BME280;69067;51.930;4.492;2023-08-01T03:37:30;99798.88;;;25.91;47.53
79589;BME280;69067;51.930;4.492;2023-08-01T03:39:56;99799.72;;;25.92;47.70
79589;BME280;69067;51.930;4.492;2023-08-01T03:42:22;99793.91;;;25.88;47.03
79589;BME280;69067;51.930;4.492;2023-08-01T03:44:48;99804.34;;;25.91;46.73
79589;BME280;69067;51.930;4.492;2023-08-01T03:47:13;99798.81;;;25.86;47.32
79589;BME280;69067;51.930;4.492;2023-08-01T03:49:39;99809.13;;;25.84;47.54
79589;BME280;69067;51.930;4.492;2023-08-01T03:52:06;99816.81;;;25.87;47.03
79589;BME280;69067;51.930;4.492;2023-08-01T03:54:32;99816.91;;;25.92;47.71
79589;BME280;69067;51.930;4.492;2023-08-01T03:56:58;99809.22;;;25.89;46.52
79589;BME280;69067;51.930;4.492;2023-08-01T03:59:23;99809.44;;;25.87;46.96
79589;BME280;69067;51.930;4.492;2023-08-01T04:01:49;99807.00;;;25.86;47.51
79589;BME280;69067;51.930;4.492;2023-08-01T04:04:16;99799.38;;;25.88;47.22
79589;BME280;69067;51.930;4.492;2023-08-01T04:06:42;99798.22;;;25.84;47.06
79589;BME280;69067;51.930;4.492;2023-08-01T04:09:08;99805.16;;;25.92;47.20
79589;BME280;69067;51.930;4.492;2023-08-01T04:11:33;99803.28;;;25.92;46.63
79589;BME280;69067;51.930;4.492;2023-08-01T04:13:59;99796.88;;;25.86;47.51
79589;BME280;69067;51.930;4.492;2023-08-01T04:16:25;99807.47;;;25.83;46.99
79589;BME280;69067;51.930;4.492;2023-08-01T04:18:50;99805.41;;;25.90;46.59
79589;BME280;69067;51.930;4.492;2023-08-01T04:21:16;99799.88;;;25.85;47.13
79589;BME280;69067;51.930;4.492;2023-08-01T04:23:42;99800.72;;;25.85;46.59
79589;BME280;69067;51.930;4.492;2023-08-01T04:26:08;99793.34;;;25.86;47.13
79589;BME280;69067;51.930;4.492;2023-08-01T04:28:34;99803.28;;;25.92;47.02
79589;BME280;69067;51.930;4.492;2023-08-01T04:31:00;99802.19;;;25.93;46.41
79589;BME280;69067;51.930;4.492;2023-08-01T04:33:26;99795.56;;;25.89;47.05
79589;BME280;69067;51.930;4.492;2023-08-01T04:35:52;99784.66;;;25.89;47.27
79589;BME280;69067;51.930;4.492;2023-08-01T04:38:18;99799.13;;;25.89;47.47
79589;BME280;69067;51.930;4.492;2023-08-01T04:40:43;99791.94;;;25.83;46.64
79589;BME280;69067;51.930;4.492;2023-08-01T04:43:12;99798.88;;;25.91;46.96
79589;BME280;69067;51.930;4.492;2023-08-01T04:45:37;99802.69;;;25.90;47.33
79589;BME280;69067;51.930;4.492;2023-08-01T04:48:03;99801.53;;;25.86;46.87
79589;BME280;69067;51.930;4.492;2023-08-01T04:50:29;99791.44;;;25.86;47.21
79589;BME280;69067;51.930;4.492;2023-08-01T04:52:55;99805.16;;;25.92;46.57
79589;BME280;69067;51.930;4.492;2023-08-01T04:55:21;99801.84;;;25.89;46.38
79589;BME280;69067;51.930;4.492;2023-08-01T04:57:46;99809.22;;;25.89;46.92
79589;BME280;69067;51.930;4.492;2023-08-01T05:00:13;99804.81;;;25.88;46.66
79589;BME280;69067;51.930;4.492;2023-08-01T05:02:39;99814.41;;;25.91;46.53
79589;BME280;69067;51.930;4.492;2023-08-01T05:05:05;99808.31;;;25.83;46.82
79589;BME280;69067;51.930;4.492;2023-08-01T05:07:31;99808.63;;;25.87;46.48
79589;BME280;69067;51.930;4.492;2023-08-01T05:09:57;99806.16;;;25.85;47.32
79589;BME280;69067;51.930;4.492;2023-08-01T05:12:23;99813.84;;;25.88;46.92
79589;BME280;69067;51.930;4.492;2023-08-01T05:14:48;99815.91;;;25.81;47.12
79589;BME280;69067;51.930;4.492;2023-08-01T05:17:14;99814.84;;;25.82;47.42
79589;BME280;69067;51.930;4.492;2023-08-01T05:19:40;99807.72;;;25.81;46.94
79589;BME280;69067;51.930;4.492;2023-08-01T05:22:06;99797.03;;;25.80;46.98
79589;BME280;69067;51.930;4.492;2023-08-01T05:24:31;99808.78;;;25.80;47.26
79589;BME280;69067;51.930;4.492;2023-08-01T05:26:57;99808.47;;;25.77;46.92
79589;BME280;69067;51.930;4.492;2023-08-01T05:29:23;99813.41;;;25.80;46.68
79589;BME280;69067;51.930;4.492;2023-08-01T05:31:49;99813.41;;;25.80;47.00
79589;BME280;69067;51.930;4.492;2023-08-01T05:34:14;99803.84;;;25.77;46.93
79589;BME280;69067;51.930;4.492;2023-08-01T05:36:40;99814.25;;;25.80;47.49
79589;BME280;69067;51.930;4.492;2023-08-01T05:39:07;99820.22;;;25.77;47.10
79589;BME280;69067;51.930;4.492;2023-08-01T05:41:32;99823.25;;;25.81;47.23
79589;BME280;69067;51.930;4.492;2023-08-01T05:43:58;99822.34;;;25.92;46.70
79589;BME280;69067;51.930;4.492;2023-08-01T05:46:24;99824.34;;;25.97;46.80
79589;BME280;69067;51.930;4.492;2023-08-01T05:48:50;99823.19;;;25.93;46.81
79589;BME280;69067;51.930;4.492;2023-08-01T05:51:16;99823.09;;;25.87;46.94
79589;BME280;69067;51.930;4.492;2023-08-01T05:57:03;99828.16;;;25.79;47.20
79589;BME280;69067;51.930;4.492;2023-08-01T05:59:29;99829.78;;;25.80;46.76
79589;BME280;69067;51.930;4.492;2023-08-01T06:01:55;99832.03;;;25.83;46.64
79589;BME280;69067;51.930;4.492;2023-08-01T06:04:20;99824.00;;;25.76;46.71
79589;BME280;69067;51.930;4.492;2023-08-01T06:06:46;99832.50;;;25.80;47.00
79589;BME280;69067;51.930;4.492;2023-08-01T06:09:12;99839.63;;;25.81;47.54
79589;BME280;69067;51.930;4.492;2023-08-01T06:11:37;99833.25;;;25.75;46.67
79589;BME280;69067;51.930;4.492;2023-08-01T06:14:03;99841.78;;;25.79;46.67
79589;BME280;69067;51.930;4.492;2023-08-01T06:16:29;99835.22;;;25.80;46.71
79589;BME280;69067;51.930;4.492;2023-08-01T06:18:55;99834.41;;;25.79;47.07
79589;BME280;69067;51.930;4.492;2023-08-01T06:21:22;99834.41;;;25.79;46.84
79589;BME280;69067;51.930;4.492;2023-08-01T06:23:48;99839.06;;;25.79;46.44
79589;BME280;69067;51.930;4.492;2023-08-01T06:26:13;99841.78;;;25.79;47.01
79589;BME280;69067;51.930;4.492;2023-08-01T06:28:41;99845.22;;;25.74;46.51
79589;BME280;69067;51.930;4.492;2023-08-01T06:31:07;99846.66;;;25.77;45.92
79589;BME280;69067;51.930;4.492;2023-08-01T06:33:33;99842.94;;;25.83;46.64
79589;BME280;69067;51.930;4.492;2023-08-01T06:35:58;99847.31;;;25.84;46.23
79589;BME280;69067;51.930;4.492;2023-08-01T06:38:24;99855.41;;;25.79;46.53
79589;BME280;69067;51.930;4.492;2023-08-01T06:40:50;99842.84;;;25.78;46.63
79589;BME280;69067;51.930;4.492;2023-08-01T06:43:16;99853.16;;;25.76;46.81
79589;BME280;69067;51.930;4.492;2023-08-01T06:45:41;99846.66;;;25.77;46.51
79589;BME280;69067;51.930;4.492;2023-08-01T06:48:07;99858.94;;;25.79;47.01
79589;BME280;69067;51.930;4.492;2023-08-01T06:50:34;99862.66;;;25.73;46.51
79589;BME280;69067;51.930;4.492;2023-08-01T06:53:00;99855.81;;;25.71;46.50
79589;BME280;69067;51.930;4.492;2023-08-01T06:55:26;99859.69;;;25.75;46.22
79589;BME280;69067;51.930;4.492;2023-08-01T06:57:52;99867.03;;;25.74;46.70
79589;BME280;69067;51.930;4.492;2023-08-01T07:00:18;99862.69;;;25.90;45.83
79589;BME280;69067;51.930;4.492;2023-08-01T07:02:44;99879.28;;;25.88;45.84
79589;BME280;69067;51.930;4.492;2023-08-01T07:05:10;99875.19;;;25.86;45.80
79589;BME280;69067;51.930;4.492;2023-08-01T07:07:35;99869.44;;;25.87;45.66
79589;BME280;69067;51.930;4.492;2023-08-01T07:10:01;99885.50;;;25.84;46.51
79589;BME280;69067;51.930;4.492;2023-08-01T07:12:27;99888.91;;;25.91;45.45
79589;BME280;69067;51.930;4.492;2023-08-01T07:14:53;99881.84;;;25.95;46.15
79589;BME280;69067;51.930;4.492;2023-08-01T07:17:18;99897.06;;;25.91;45.88
79589;BME280;69067;51.930;4.492;2023-08-01T07:19:44;99886.09;;;25.86;45.54
79589;BME280;69067;51.930;4.492;2023-08-01T07:22:10;99884.16;;;25.86;45.61
79589;BME280;69067;51.930;4.492;2023-08-01T07:24:36;99892.09;;;25.88;45.42
79589;BME280;69067;51.930;4.492;2023-08-01T07:27:01;99891.28;;;25.87;45.22
79589;BME280;69067;51.930;4.492;2023-08-01T07:29:27;99890.78;;;25.91;44.90
79589;BME280;69067;51.930;4.492;2023-08-01T07:31:53;99889.97;;;25.90;44.99
79589;BME280;69067;51.930;4.492;2023-08-01T07:34:19;99903.84;;;25.88;44.78
79589;BME280;69067;51.930;4.492;2023-08-01T07:36:47;99889.28;;;25.83;44.86
79589;BME280;69067;51.930;4.492;2023-08-01T07:39:15;99895.91;;;25.87;45.08
79589;BME280;69067;51.930;4.492;2023-08-01T07:41:41;99895.81;;;25.82;44.81
79589;BME280;69067;51.930;4.492;2023-08-01T07:44:07;99900.53;;;25.86;45.58
79589;BME280;69067;51.930;4.492;2023-08-01T07:46:33;99894.81;;;25.88;44.83
79589;BME280;69067;51.930;4.492;2023-08-01T07:48:59;99903.00;;;25.88;44.92
79589;BME280;69067;51.930;4.492;2023-08-01T07:51:27;99912.56;;;25.74;45.07
79589;BME280;69067;51.930;4.492;2023-08-01T07:53:54;99914.44;;;25.85;45.30
79589;BME280;69067;51.930;4.492;2023-08-01T07:56:20;99911.13;;;25.83;44.75
79589;BME280;69067;51.930;4.492;2023-08-01T07:58:46;99912.69;;;25.79;44.31
79589;BME280;69067;51.930;4.492;2023-08-01T08:01:12;99919.53;;;25.81;45.18
79589;BME280;69067;51.930;4.492;2023-08-01T08:03:37;99900.22;;;25.83;44.72
79589;BME280;69067;51.930;4.492;2023-08-01T08:06:03;99906.06;;;25.75;44.48
79589;BME280;69067;51.930;4.492;2023-08-01T08:08:31;99916.47;;;25.78;44.55
79589;BME280;69067;51.930;4.492;2023-08-01T08:10:59;99913.09;;;25.71;44.93
79589;BME280;69067;51.930;4.492;2023-08-01T08:13:27;99908.47;;;25.71;44.09
79589;BME280;69067;51.930;4.492;2023-08-01T08:15:55;99915.66;;;25.77;44.51
79589;BME280;69067;51.930;4.492;2023-08-01T08:18:22;99921.44;;;25.81;43.62
79589;BME280;69067;51.930;4.492;2023-08-01T08:20:49;99922.66;;;25.73;44.45
79589;BME280;69067;51.930;4.492;2023-08-01T08:23:14;99923.84;;;25.77;44.21
79589;BME280;69067;51.930;4.492;2023-08-01T08:25:42;99926.41;;;25.84;44.43
79589;BME280;69067;51.930;4.492;2023-08-01T08:28:11;99926.81;;;25.76;44.25
79589;BME280;69067;51.930;4.492;2023-08-01T08:30:38;99923.47;;;25.74;44.41
79589;BME280;69067;51.930;4.492;2023-08-01T08:33:04;99924.06;;;25.76;43.71
79589;BME280;69067;51.930;4.492;2023-08-01T08:35:33;99926.13;;;25.69;44.53
79589;BME280;69067;51.930;4.492;2023-08-01T08:38:03;99935.06;;;25.81;44.06
79589;BME280;69067;51.930;4.492;2023-08-01T08:40:31;99929.91;;;25.68;44.20
79589;BME280;69067;51.930;4.492;2023-08-01T08:43:01;99936.06;;;25.75;44.16
79589;BME280;69067;51.930;4.492;2023-08-01T08:45:34;99930.34;;;25.76;43.81
79589;BME280;69067;51.930;4.492;2023-08-01T08:48:03;99930.13;;;25.78;43.59
79589;BME280;69067;51.930;4.492;2023-08-01T08:50:35;99936.41;;;25.78;44.06
79589;BME280;69067;51.930;4.492;2023-08-01T08:53:01;99934.59;;;25.84;43.59
79589;BME280;69067;51.930;4.492;2023-08-01T08:55:28;99935.56;;;25.78;44.18
79589;BME280;69067;51.930;4.492;2023-08-01T08:57:55;99939.13;;;25.78;43.86
79589;BME280;69067;51.930;4.492;2023-08-01T09:00:21;99913.41;;;25.74;44.14
79589;BME280;69067;51.930;4.492;2023-08-01T09:02:47;99929.22;;;25.72;43.71
79589;BME280;69067;51.930;4.492;2023-08-01T09:05:13;99944.38;;;25.68;44.02
79589;BME280;69067;51.930;4.492;2023-08-01T09:07:42;99941.03;;;25.78;43.84
79589;BME280;69067;51.930;4.492;2023-08-01T09:10:10;99939.75;;;25.69;43.84
79589;BME280;69067;51.930;4.492;2023-08-01T09:12:36;99949.91;;;25.73;43.68
79589;BME280;69067;51.930;4.492;2023-08-01T09:15:02;99944.22;;;25.75;43.99
79589;BME280;69067;51.930;4.492;2023-08-01T09:17:28;99939.00;;;25.73;43.13
79589;BME280;69067;51.930;4.492;2023-08-01T09:20:06;99945.41;;;25.79;43.50
79589;BME280;69067;51.930;4.492;2023-08-01T09:22:43;99959.31;;;25.66;44.04
79589;BME280;69067;51.930;4.492;2023-08-01T09:25:13;99940.22;;;25.66;43.93
79589;BME280;69067;51.930;4.492;2023-08-01T09:27:39;99946.47;;;25.78;43.56
79589;BME280;69067;51.930;4.492;2023-08-01T09:30:11;99961.13;;;25.60;43.88
79589;BME280;69067;51.930;4.492;2023-08-01T09:32:39;99961.97;;;25.61;43.65
79589;BME280;69067;51.930;4.492;2023-08-01T09:35:05;99954.28;;;25.58;43.96
79589;BME280;69067;51.930;4.492;2023-08-01T09:37:42;99959.75;;;25.74;43.25
79589;BME280;69067;51.930;4.492;2023-08-01T09:40:09;99958.41;;;25.60;43.36
79589;BME280;69067;51.930;4.492;2023-08-01T09:42:43;99971.78;;;25.62;43.90
79589;BME280;69067;51.930;4.492;2023-08-01T09:45:17;99970.09;;;25.72;43.37
79589;BME280;69067;51.930;4.492;2023-08-01T09:47:44;99974.63;;;25.67;43.16
79589;BME280;69067;51.930;4.492;2023-08-01T09:50:12;99969.28;;;25.72;43.15
79589;BME280;69067;51.930;4.492;2023-08-01T09:52:46;99966.97;;;25.80;43.20
79589;BME280;69067;51.930;4.492;2023-08-01T09:58:00;99988.59;;;25.70;43.67
79589;BME280;69067;51.930;4.492;2023-08-01T10:00:26;99985.44;;;25.62;43.34
79589;BME280;69067;51.930;4.492;2023-08-01T10:02:56;99983.28;;;25.64;42.62
79589;BME280;69067;51.930;4.492;2023-08-01T10:05:30;99985.78;;;25.65;43.41
79589;BME280;69067;51.930;4.492;2023-08-01T10:08:02;99975.59;;;25.61;43.05
79589;BME280;69067;51.930;4.492;2023-08-01T10:10:29;99983.28;;;25.64;43.12
79589;BME280;69067;51.930;4.492;2023-08-01T10:12:56;99985.03;;;25.70;42.64
79589;BME280;69067;51.930;4.492;2023-08-01T10:15:26;99990.25;;;25.71;42.66
79589;BME280;69067;51.930;4.492;2023-08-01T10:17:52;99991.09;;;25.72;42.71
79589;BME280;69067;51.930;4.492;2023-08-01T10:20:19;99991.56;;;25.69;43.03
79589;BME280;69067;51.930;4.492;2023-08-01T10:22:48;99982.09;;;25.60;43.15
79589;BME280;69067;51.930;4.492;2023-08-01T10:25:16;99984.53;;;25.73;42.85
79589;BME280;69067;51.930;4.492;2023-08-01T10:27:43;99987.78;;;25.70;42.73
79589;BME280;69067;51.930;4.492;2023-08-01T10:30:09;99981.63;;;25.63;42.62
79589;BME280;69067;51.930;4.492;2023-08-01T10:32:37;100000.81;;;25.68;42.24
79589;BME280;69067;51.930;4.492;2023-08-01T10:35:05;99993.56;;;25.73;42.85
79589;BME280;69067;51.930;4.492;2023-08-01T10:37:45;99978.56;;;25.59;42.89
79589;BME280;69067;51.930;4.492;2023-08-01T10:40:14;99990.50;;;25.70;42.42
79589;BME280;69067;51.930;4.492;2023-08-01T10:42:42;100006.91;;;25.58;42.94
79589;BME280;69067;51.930;4.492;2023-08-01T10:45:22;100003.31;;;25.69;42.93
79589;BME280;69067;51.930;4.492;2023-08-01T10:47:51;100004.72;;;25.72;42.92
79589;BME280;69067;51.930;4.492;2023-08-01T10:50:18;99997.63;;;25.71;42.92
79589;BME280;69067;51.930;4.492;2023-08-01T10:52:45;100017.31;;;25.61;43.25
79589;BME280;69067;51.930;4.492;2023-08-01T10:55:12;100013.06;;;25.65;43.08
79589;BME280;69067;51.930;4.492;2023-08-01T10:57:48;100024.19;;;25.64;42.77
79589;BME280;69067;51.930;4.492;2023-08-01T11:00:16;100015.03;;;25.70;42.55
79589;BME280;69067;51.930;4.492;2023-08-01T11:02:51;100029.75;;;25.69;42.62
79589;BME280;69067;51.930;4.492;2023-08-01T11:05:17;100022.16;;;25.71;42.83
79589;BME280;69067;51.930;4.492;2023-08-01T11:07:56;100024.53;;;25.56;43.20
79589;BME280;69067;51.930;4.492;2023-08-01T11:10:25;100035.56;;;25.72;42.36
79589;BME280;69067;51.930;4.492;2023-08-01T11:12:52;100036.50;;;25.66;42.68
79589;BME280;69067;51.930;4.492;2023-08-01T11:15:22;100034.97;;;25.70;42.56
79589;BME280;69067;51.930;4.492;2023-08-01T11:17:49;100034.97;;;25.70;42.67
79589;BME280;69067;51.930;4.492;2023-08-01T11:20:17;100033.69;;;25.49;43.26
79589;BME280;69067;51.930;4.492;2023-08-01T11:23:00;100047.16;;;25.68;43.12
79589;BME280;69067;51.930;4.492;2023-08-01T11:25:37;100034.50;;;25.62;43.01
79589;BME280;69067;51.930;4.492;2023-08-01T11:28:15;100047.53;;;25.60;42.45
79589;BME280;69067;51.930;4.492;2023-08-01T11:30:42;100055.72;;;25.60;42.88
79589;BME280;69067;51.930;4.492;2023-08-01T11:33:16;100046.84;;;25.64;42.85
79589;BME280;69067;51.930;4.492;2023-08-01T11:35:44;100045.88;;;25.70;42.87
79589;BME280;69067;51.930;4.492;2023-08-01T11:38:10;100048.38;;;25.72;42.32
79589;BME280;69067;51.930;4.492;2023-08-01T11:40:37;100046.47;;;25.72;42.44
79589;BME280;69067;51.930;4.492;2023-08-01T11:43:03;100054.75;;;25.77;42.15
79589;BME280;69067;51.930;4.492;2023-08-01T11:45:29;100064.22;;;25.75;42.74
79589;BME280;69067;51.930;4.492;2023-08-01T11:47:55;100053.94;;;25.65;42.72
79589;BME280;69067;51.930;4.492;2023-08-01T11:50:22;100051.19;;;25.77;42.53
79589;BME280;69067;51.930;4.492;2023-08-01T11:52:49;100065.78;;;25.71;42.69
79589;BME280;69067;51.930;4.492;2023-08-01T11:55:35;100056.03;;;25.75;42.43
79589;BME280;69067;51.930;4.492;2023-08-01T11:58:01;100054.06;;;25.70;42.22
79589;BME280;69067;51.930;4.492;2023-08-01T12:00:28;100061.50;;;25.75;42.20
79589;BME280;69067;51.930;4.492;2023-08-01T12:03:05;100055.03;;;25.64;42.22
79589;BME280;69067;51.930;4.492;2023-08-01T12:05:32;100064.13;;;25.70;43.08
79589;BME280;69067;51.930;4.492;2023-08-01T12:08:16;100067.09;;;25.68;42.47
79589;BME280;69067;51.930;4.492;2023-08-01T12:10:45;100055.72;;;25.71;42.65
79589;BME280;69067;51.930;4.492;2023-08-01T12:13:21;100068.75;;;25.69;42.57
79589;BME280;69067;51.930;4.492;2023-08-01T12:15:53;100075.72;;;25.77;42.67
79589;BME280;69067;51.930;4.492;2023-08-01T12:18:26;100083.31;;;25.75;42.48
79589;BME280;69067;51.930;4.492;2023-08-01T12:20:53;100077.63;;;25.76;42.61
79589;BME280;69067;51.930;4.492;2023-08-01T12:23:19;100077.84;;;25.75;42.69
79589;BME280;69067;51.930;4.492;2023-08-01T12:25:46;100073.47;;;25.74;42.45
79589;BME280;69067;51.930;4.492;2023-08-01T12:28:16;100081.19;;;25.77;41.92
79589;BME280;69067;51.930;4.492;2023-08-01T12:30:43;100083.22;;;25.70;42.76
79589;BME280;69067;51.930;4.492;2023-08-01T12:33:10;100077.16;;;25.68;42.92
79589;BME280;69067;51.930;4.492;2023-08-01T12:35:40;100086.41;;;25.67;42.19
79589;BME280;69067;51.930;4.492;2023-08-01T12:38:07;100087.75;;;25.64;42.88
79589;BME280;69067;51.930;4.492;2023-08-01T12:40:33;100081.09;;;25.72;42.64
79589;BME280;69067;51.930;4.492;2023-08-01T12:42:58;100085.81;;;25.76;42.53
79589;BME280;69067;51.930;4.492;2023-08-01T12:45:24;100084.50;;;25.79;42.12
79589;BME280;69067;51.930;4.492;2023-08-01T12:47:50;100085.94;;;25.70;42.34
79589;BME280;69067;51.930;4.492;2023-08-01T12:50:16;100075.38;;;25.73;42.36
79589;BME280;69067;51.930;4.492;2023-08-01T12:52:42;100086.53;;;25.72;42.50
79589;BME280;69067;51.930;4.492;2023-08-01T12:55:08;100083.91;;;25.77;42.28
79589;BME280;69067;51.930;4.492;2023-08-01T12:57:33;100096.34;;;25.73;42.34
79589;BME280;69067;51.930;4.492;2023-08-01T12:59:59;100092.38;;;25.64;43.20
79589;BME280;69067;51.930;4.492;2023-08-01T13:02:26;100096.38;;;25.61;42.88
79589;BME280;69067;51.930;4.492;2023-08-01T13:04:52;100101.84;;;25.61;43.36